createdAt,value
2022-09-29T00:02:05.447Z,97018.38
2022-09-29T00:04:31.946Z,97009.66
2022-09-29T00:06:58.426Z,97008.34
2022-09-29T00:09:24.905Z,97012.13
2022-09-29T00:11:56.242Z,97004.81
2022-09-29T00:14:23.752Z,97009.69
2022-09-29T00:16:50.603Z,97011.63
2022-09-29T00:19:17.297Z,97012.66
2022-09-29T00:21:43.782Z,97008.63
2022-09-29T00:24:10.264Z,97006.47
2022-09-29T00:26:37.033Z,97009.47
2022-09-29T00:29:04.137Z,97015.97
2022-09-29T00:31:33.088Z,97019.25
2022-09-29T00:33:59.810Z,97012.47
2022-09-29T00:36:30.136Z,97005.13
2022-09-29T00:38:57.943Z,97004.31
2022-09-29T00:41:30.403Z,97005.94
2022-09-29T00:44:00.268Z,97010.56
2022-09-29T00:46:46.455Z,97010.03
2022-09-29T00:49:43.985Z,96998.63
2022-09-29T00:52:27.084Z,96995.09
2022-09-29T00:55:01.489Z,96996.97
2022-09-29T00:57:38.269Z,96997.78
2022-09-29T01:00:10.545Z,96999.72
2022-09-29T01:02:40.185Z,96995.09
2022-09-29T01:05:09.216Z,97001.34
2022-09-29T01:07:35.814Z,97002.97
2022-09-29T01:10:02.318Z,96996.44
2022-09-29T01:12:28.922Z,96992.38
2022-09-29T01:14:55.738Z,96985.59
2022-09-29T01:17:23.038Z,96982.34
2022-09-29T01:20:04.870Z,96974.22
2022-09-29T01:22:46.177Z,96984.81
2022-09-29T01:25:33.056Z,96984.53
2022-09-29T01:28:21.063Z,96980.47
2022-09-29T01:31:22.112Z,96985.91
2022-09-29T01:34:07.689Z,96983.44
2022-09-29T01:36:37.045Z,96978.28
2022-09-29T01:39:11.146Z,96984.00
2022-09-29T01:41:45.130Z,96971.53
2022-09-29T01:44:23.923Z,96969.88
2022-09-29T01:46:54.101Z,96959.31
2022-09-29T01:49:21.745Z,96970.97
2022-09-29T01:51:54.204Z,96969.34
2022-09-29T01:54:27.205Z,96959.31
2022-09-29T01:56:59.693Z,96959.31
2022-09-29T01:59:51.077Z,96968.25
2022-09-29T02:02:24.414Z,96968.81
2022-09-29T02:04:58.403Z,96970.44
2022-09-29T02:07:31.969Z,96968.81
2022-09-29T02:10:02.856Z,96976.38
2022-09-29T02:12:30.835Z,96971.78
2022-09-29T02:14:58.452Z,96971.25
2022-09-29T02:17:33.564Z,96975.56
2022-09-29T02:20:00.172Z,96977.19
2022-09-29T02:22:26.701Z,96968.53
2022-09-29T02:24:55.939Z,96967.72
2022-09-29T02:27:22.989Z,96952.25
2022-09-29T02:29:49.684Z,96961.50
2022-09-29T02:32:16.401Z,96959.88
2022-09-29T02:34:45.919Z,96940.88
2022-09-29T02:37:24.501Z,96947.38
2022-09-29T02:40:03.123Z,96954.16
2022-09-29T02:42:41.798Z,96946.28
2022-09-29T02:45:54.253Z,96946.84
2022-09-29T02:48:51.926Z,96942.50
2022-09-29T02:51:48.275Z,96940.88
2022-09-29T02:54:39.203Z,96941.41
2022-09-29T02:57:17.913Z,96949.28
2022-09-29T03:00:00.283Z,96945.22
2022-09-29T03:02:27.664Z,96943.84
2022-09-29T03:04:54.231Z,96945.22
2022-09-29T03:07:21.350Z,96941.69
2022-09-29T03:09:47.822Z,96938.16
2022-09-29T03:12:14.324Z,96936.00
2022-09-29T03:14:40.830Z,96936.81
2022-09-29T03:17:07.410Z,96937.34
2022-09-29T03:19:33.898Z,96940.34
2022-09-29T03:22:00.394Z,96940.59
2022-09-29T03:24:27.050Z,96945.22
2022-09-29T03:26:53.526Z,96957.66
2022-09-29T03:29:20.190Z,96951.16
2022-09-29T03:31:46.777Z,96956.56
2022-09-29T03:34:13.310Z,96963.63
2022-09-29T03:36:41.438Z,96958.69
2022-09-29T03:39:08.582Z,96961.44
2022-09-29T03:41:35.209Z,96960.09
2022-09-29T03:44:01.910Z,96964.16
2022-09-29T03:46:28.446Z,96968.00
2022-09-29T03:48:54.991Z,96970.69
2022-09-29T03:51:21.454Z,96971.75
2022-09-29T03:53:47.956Z,96969.81
2022-09-29T03:56:15.208Z,96962.50
2022-09-29T03:58:41.743Z,96970.63
2022-09-29T04:01:08.506Z,96966.56
2022-09-29T04:03:35.029Z,96967.09
2022-09-29T04:06:01.585Z,96966.84
2022-09-29T04:08:28.131Z,96967.38
2022-09-29T04:10:54.621Z,96973.88
2022-09-29T04:13:21.761Z,96986.34
2022-09-29T04:15:49.361Z,96984.44
2022-09-29T04:18:15.893Z,96972.78
2022-09-29T04:20:42.436Z,96973.06
2022-09-29T04:23:09.044Z,96964.38
2022-09-29T04:25:35.521Z,96971.22
2022-09-29T04:28:02.525Z,96976.88
2022-09-29T04:30:29.007Z,96977.69
2022-09-29T04:32:55.498Z,96986.88
2022-09-29T04:35:21.982Z,96978.75
2022-09-29T04:37:48.550Z,96970.63
2022-09-29T04:40:15.645Z,96977.13
2022-09-29T04:42:42.097Z,96981.78
2022-09-29T04:45:08.911Z,96982.88
2022-09-29T04:47:35.388Z,96981.25
2022-09-29T04:50:01.903Z,96978.22
2022-09-29T04:52:28.451Z,96980.94
2022-09-29T04:54:54.914Z,96978.19
2022-09-29T04:57:21.405Z,96976.06
2022-09-29T04:59:49.002Z,96958.16
2022-09-29T05:02:15.543Z,96970.09
2022-09-29T05:04:42.072Z,96971.16
2022-09-29T05:07:08.738Z,96975.22
2022-09-29T05:09:35.343Z,96976.03
2022-09-29T05:12:02.195Z,96969.25
2022-09-29T05:14:28.649Z,96974.41
2022-09-29T05:16:55.887Z,96977.94
2022-09-29T05:19:22.470Z,96982.81
2022-09-29T05:21:49.085Z,96984.44
2022-09-29T05:24:15.676Z,96986.06
2022-09-29T05:26:42.174Z,96974.69
2022-09-29T05:29:08.749Z,96965.75
2022-09-29T05:31:35.272Z,96983.34
2022-09-29T05:34:01.782Z,96985.81
2022-09-29T05:36:28.431Z,96974.41
2022-09-29T05:38:56.119Z,96992.09
2022-09-29T05:41:23.313Z,96996.16
2022-09-29T05:43:50.698Z,96988.53
2022-09-29T05:46:19.319Z,96986.91
2022-09-29T05:48:46.900Z,96990.47
2022-09-29T05:51:17.456Z,96996.97
2022-09-29T05:53:47.490Z,96999.41
2022-09-29T05:56:21.333Z,96996.16
2022-09-29T05:58:47.858Z,96999.41
2022-09-29T06:01:16.816Z,96992.34
2022-09-29T06:03:43.608Z,97007.00
2022-09-29T06:06:15.977Z,97001.03
2022-09-29T06:08:43.795Z,96992.09
2022-09-29T06:11:12.639Z,97007.81
2022-09-29T06:13:40.178Z,97011.88
2022-09-29T06:16:07.474Z,97005.94
2022-09-29T06:18:34.166Z,97005.94
2022-09-29T06:21:05.281Z,96992.91
2022-09-29T06:23:32.402Z,96995.09
2022-09-29T06:26:01.925Z,96992.66
2022-09-29T06:28:29.335Z,96997.00
2022-09-29T06:31:00.602Z,96998.34
2022-09-29T06:33:30.882Z,97005.41
2022-09-29T06:36:16.478Z,97007.84
2022-09-29T06:38:43.082Z,97008.41
2022-09-29T06:41:09.770Z,96999.72
2022-09-29T06:43:36.247Z,97007.84
2022-09-29T06:46:03.846Z,97006.78
2022-09-29T06:48:30.377Z,97007.31
2022-09-29T06:51:06.192Z,96996.75
2022-09-29T06:53:38.579Z,97003.25
2022-09-29T06:56:05.749Z,97008.41
2022-09-29T06:58:32.762Z,97027.13
2022-09-29T07:01:03.170Z,97014.09
2022-09-29T07:03:30.134Z,97015.19
2022-09-29T07:06:18.362Z,97019.28
2022-09-29T07:08:43.190Z,97015.75
2022-09-29T07:11:10.751Z,97012.75
2022-09-29T07:13:37.865Z,97019.28
2022-09-29T07:16:10.143Z,97027.41
2022-09-29T07:18:38.349Z,97023.34
2022-09-29T07:21:06.112Z,97029.84
2022-09-29T07:23:33.191Z,97031.44
2022-09-29T07:25:59.681Z,97033.63
2022-09-29T07:28:26.308Z,97033.63
2022-09-29T07:31:10.498Z,97041.22
2022-09-29T07:33:40.436Z,97043.13
2022-09-29T07:36:07.125Z,97051.53
2022-09-29T07:38:33.586Z,97041.50
2022-09-29T07:41:02.437Z,97056.16
2022-09-29T07:43:30.447Z,97054.53
2022-09-29T07:45:57.189Z,97055.88
2022-09-29T07:48:26.812Z,97058.88
2022-09-29T07:51:06.106Z,97064.81
2022-09-29T07:53:33.226Z,97058.34
2022-09-29T07:56:10.892Z,97062.41
2022-09-29T07:58:37.925Z,97061.56
2022-09-29T08:01:10.218Z,97065.41
2022-09-29T08:03:38.852Z,97059.69
2022-09-29T08:06:06.373Z,97073.56
2022-09-29T08:08:36.149Z,97077.63
2022-09-29T08:11:06.474Z,97086.03
2022-09-29T08:13:34.546Z,97083.31
2022-09-29T08:16:01.617Z,97093.34
2022-09-29T08:18:28.921Z,97086.81
2022-09-29T08:20:57.705Z,97081.88
2022-09-29T08:23:26.563Z,97084.28
2022-09-29T08:26:05.320Z,97074.22
2022-09-29T08:28:33.088Z,97076.34
2022-09-29T08:31:07.976Z,97082.34
2022-09-29T08:33:35.142Z,97073.34
2022-09-29T08:36:05.689Z,97077.94
2022-09-29T08:38:32.277Z,97069.22
2022-09-29T08:41:03.808Z,97068.13
2022-09-29T08:43:35.465Z,97066.44
2022-09-29T08:46:06.766Z,97067.00
2022-09-29T08:48:38.868Z,97069.72
2022-09-29T08:51:18.845Z,97080.00
2022-09-29T08:54:00.056Z,97074.53
2022-09-29T08:56:29.106Z,97077.22
2022-09-29T08:58:55.659Z,97068.25
2022-09-29T09:01:28.128Z,97069.28
2022-09-29T09:03:56.200Z,97071.69
2022-09-29T09:06:54.578Z,97072.66
2022-09-29T09:09:26.891Z,97067.09
2022-09-29T09:12:14.793Z,97074.91
2022-09-29T09:15:18.940Z,97081.88
2022-09-29T09:17:49.719Z,97075.81
2022-09-29T09:20:36.473Z,97075.78
2022-09-29T09:23:19.863Z,97073.59
2022-09-29T09:25:49.935Z,97059.75
2022-09-29T09:28:35.154Z,97057.25
2022-09-29T09:31:08.145Z,97049.09
2022-09-29T09:33:43.918Z,97045.16
2022-09-29T09:36:28.154Z,97047.22
2022-09-29T09:39:02.199Z,97044.28
2022-09-29T09:41:35.528Z,97050.53
2022-09-29T09:44:12.123Z,97042.66
2022-09-29T09:46:44.475Z,97038.31
2022-09-29T09:49:17.392Z,97027.94
2022-09-29T09:52:19.374Z,97031.78
2022-09-29T09:54:54.362Z,97028.47
2022-09-29T09:57:39.189Z,97013.25
2022-09-29T10:00:18.399Z,97005.00
2022-09-29T10:02:47.237Z,97003.06
2022-09-29T10:05:16.223Z,97009.84
2022-09-29T10:07:43.170Z,97010.94
2022-09-29T10:10:24.262Z,97013.16
2022-09-29T10:12:59.845Z,97007.38
2022-09-29T10:15:34.115Z,97005.47
2022-09-29T10:18:09.892Z,96998.31
2022-09-29T10:20:38.437Z,96999.03
2022-09-29T10:23:32.376Z,96991.88
2022-09-29T10:26:17.367Z,96996.06
2022-09-29T10:28:51.017Z,96994.28
2022-09-29T10:31:37.793Z,96996.88
2022-09-29T10:34:16.300Z,97001.91
2022-09-29T10:36:59.131Z,97003.66
2022-09-29T10:39:42.894Z,96998.91
2022-09-29T10:42:21.142Z,97005.84
2022-09-29T10:45:12.205Z,97001.66
2022-09-29T10:47:38.823Z,97003.63
2022-09-29T10:50:26.433Z,96997.75
2022-09-29T10:53:01.763Z,97008.88
2022-09-29T10:55:30.665Z,96994.13
2022-09-29T10:57:59.466Z,97001.72
2022-09-29T11:00:32.074Z,96996.56
2022-09-29T11:03:04.208Z,96998.72
2022-09-29T11:05:31.174Z,96993.38
2022-09-29T11:07:57.810Z,96994.28
2022-09-29T11:10:31.500Z,96982.16
2022-09-29T11:12:59.773Z,96994.16
2022-09-29T11:15:40.430Z,96979.22
2022-09-29T11:18:23.284Z,96991.63
2022-09-29T11:20:57.703Z,96992.03
2022-09-29T11:23:35.617Z,96999.38
2022-09-29T11:26:16.189Z,96991.63
2022-09-29T11:29:21.756Z,96990.19
2022-09-29T11:32:00.409Z,96984.75
2022-09-29T11:34:52.130Z,96990.00
2022-09-29T11:37:35.000Z,96980.72
2022-09-29T11:40:25.499Z,96986.59
2022-09-29T11:43:19.011Z,96984.22
2022-09-29T11:46:10.992Z,96974.91
2022-09-29T11:48:45.339Z,96973.44
2022-09-29T11:51:30.705Z,96975.59
2022-09-29T11:54:16.031Z,96974.50
2022-09-29T11:57:06.100Z,96973.25
2022-09-29T11:59:45.850Z,96962.22
2022-09-29T12:02:33.662Z,96957.16
2022-09-29T12:05:18.998Z,96956.25
2022-09-29T12:07:57.455Z,96940.09
2022-09-29T12:10:35.993Z,96948.59
2022-09-29T12:13:32.466Z,96942.13
2022-09-29T12:16:03.998Z,96937.25
2022-09-29T12:18:37.177Z,96931.03
2022-09-29T12:21:04.429Z,96928.28
2022-09-29T12:23:32.730Z,96926.09
2022-09-29T12:26:13.928Z,96914.41
2022-09-29T12:28:56.152Z,96904.50
2022-09-29T12:31:23.807Z,96914.94
2022-09-29T12:33:53.886Z,96914.00
2022-09-29T12:36:44.264Z,96922.69
2022-09-29T12:39:35.205Z,96930.91
2022-09-29T12:42:16.763Z,96922.88
2022-09-29T12:44:50.627Z,96922.16
2022-09-29T12:47:33.768Z,96906.25
2022-09-29T12:50:11.065Z,96920.97
2022-09-29T12:52:55.231Z,96914.06
2022-09-29T12:55:48.378Z,96913.97
2022-09-29T12:58:26.213Z,96910.88
2022-09-29T13:00:59.614Z,96914.00
2022-09-29T13:03:33.705Z,96911.63
2022-09-29T13:06:00.142Z,96913.81
2022-09-29T13:08:53.940Z,96902.66
2022-09-29T13:11:42.112Z,96903.97
2022-09-29T13:14:14.749Z,96899.78
2022-09-29T13:16:59.383Z,96901.88
2022-09-29T13:19:57.441Z,96896.03
2022-09-29T13:22:50.201Z,96891.44
2022-09-29T13:25:19.136Z,96888.03
2022-09-29T13:27:46.582Z,96879.94
2022-09-29T13:30:14.679Z,96885.91
2022-09-29T13:32:51.277Z,96902.78
2022-09-29T13:35:24.570Z,96894.59
2022-09-29T13:37:54.871Z,96892.03
2022-09-29T13:40:27.594Z,96892.78
2022-09-29T13:42:59.308Z,96890.72
2022-09-29T13:45:31.316Z,96896.44
2022-09-29T13:48:01.774Z,96892.72
2022-09-29T13:50:49.167Z,96886.69
2022-09-29T13:53:21.886Z,96881.56
2022-09-29T13:55:51.216Z,96881.31
2022-09-29T13:58:29.499Z,96874.81
2022-09-29T14:00:58.804Z,96872.50
2022-09-29T14:03:36.577Z,96883.22
2022-09-29T14:06:39.215Z,96886.59
2022-09-29T14:09:20.449Z,96886.03
2022-09-29T14:11:52.454Z,96887.69
2022-09-29T14:14:32.990Z,96884.25
2022-09-29T14:17:07.983Z,96873.94
2022-09-29T14:19:54.989Z,96867.84
2022-09-29T14:22:30.246Z,96874.19
2022-09-29T14:25:09.713Z,96880.81
2022-09-29T14:28:03.935Z,96880.47
2022-09-29T14:30:35.082Z,96883.06
2022-09-29T14:33:06.713Z,96890.59
2022-09-29T14:35:34.469Z,96891.22
2022-09-29T14:38:12.874Z,96889.63
2022-09-29T14:40:39.533Z,96891.31
2022-09-29T14:43:17.435Z,96895.19
2022-09-29T14:46:35.228Z,96894.91
2022-09-29T14:50:05.408Z,96890.19
2022-09-29T14:52:56.146Z,96889.38
2022-09-29T14:55:54.157Z,96888.81
2022-09-29T14:58:23.696Z,96885.50
2022-09-29T15:01:00.877Z,96889.25
2022-09-29T15:03:39.968Z,96890.91
2022-09-29T15:06:11.903Z,96889.41
2022-09-29T15:08:39.870Z,96889.09
2022-09-29T15:11:27.398Z,96888.81
2022-09-29T15:13:55.419Z,96891.69
2022-09-29T15:16:27.867Z,96888.25
2022-09-29T15:19:01.591Z,96882.72
2022-09-29T15:21:39.698Z,96877.09
2022-09-29T15:24:07.476Z,96879.56
2022-09-29T15:26:34.106Z,96872.22
2022-09-29T15:29:00.726Z,96869.72
2022-09-29T15:31:31.352Z,96869.94
2022-09-29T15:33:58.049Z,96871.94
2022-09-29T15:36:26.811Z,96860.66
2022-09-29T15:38:55.908Z,96875.50
2022-09-29T15:41:27.447Z,96880.47
2022-09-29T15:44:02.311Z,96876.84
2022-09-29T15:46:41.246Z,96875.97
2022-09-29T15:49:12.734Z,96873.16
2022-09-29T15:51:40.861Z,96879.41
2022-09-29T15:54:10.701Z,96884.69
2022-09-29T15:56:58.162Z,96890.28
2022-09-29T15:59:48.913Z,96883.06
2022-09-29T16:02:39.515Z,96883.88
2022-09-29T16:05:11.742Z,96886.38
2022-09-29T16:07:39.543Z,96883.16
2022-09-29T16:10:17.893Z,96891.13
2022-09-29T16:12:54.231Z,96894.19
2022-09-29T16:15:30.563Z,96893.13
2022-09-29T16:17:58.370Z,96894.19
2022-09-29T16:20:29.164Z,96901.28
2022-09-29T16:22:55.909Z,96899.44
2022-09-29T16:25:24.584Z,96903.41
2022-09-29T16:27:59.122Z,96901.97
2022-09-29T16:30:32.971Z,96907.78
2022-09-29T16:33:16.159Z,96913.44
2022-09-29T16:35:48.727Z,96906.25
2022-09-29T16:38:25.338Z,96911.25
2022-09-29T16:40:56.726Z,96909.38
2022-09-29T16:43:26.458Z,96922.44
2022-09-29T16:45:56.747Z,96919.09
2022-09-29T16:48:25.354Z,96922.19
2022-09-29T16:50:57.047Z,96924.34
2022-09-29T16:53:31.993Z,96930.84
2022-09-29T16:56:20.450Z,96925.09
2022-09-29T16:59:03.118Z,96930.09
2022-09-29T17:01:29.958Z,96927.50
2022-09-29T17:03:56.472Z,96928.88
2022-09-29T17:06:23.023Z,96937.53
2022-09-29T17:08:51.821Z,96938.06
2022-09-29T17:11:19.522Z,96945.16
2022-09-29T17:13:47.381Z,96951.00
2022-09-29T17:16:21.059Z,96951.38
2022-09-29T17:18:52.498Z,96941.31
2022-09-29T17:21:20.084Z,96945.56
2022-09-29T17:23:46.684Z,96948.53
2022-09-29T17:26:58.761Z,96961.28
2022-09-29T17:29:25.319Z,96964.59
2022-09-29T17:31:52.013Z,96966.19
2022-09-29T17:34:22.002Z,96969.91
2022-09-29T17:36:49.203Z,96968.31
2022-09-29T17:39:16.269Z,96967.69
2022-09-29T17:41:46.008Z,96981.72
2022-09-29T17:44:13.097Z,96987.19
2022-09-29T17:46:39.753Z,96985.41
2022-09-29T17:49:11.477Z,96998.09
2022-09-29T17:51:37.961Z,96995.84
2022-09-29T17:54:04.503Z,96997.63
2022-09-29T17:56:37.175Z,96996.94
2022-09-29T17:59:05.794Z,96998.06
2022-09-29T18:01:34.223Z,97003.03
2022-09-29T18:04:11.369Z,96983.47
2022-09-29T18:06:38.141Z,97000.69
2022-09-29T18:09:15.933Z,97007.44
2022-09-29T18:11:42.831Z,96999.31
2022-09-29T18:14:09.509Z,96993.41
2022-09-29T18:16:36.168Z,97007.44
2022-09-29T18:19:02.692Z,97004.97
2022-09-29T18:21:29.553Z,97003.84
2022-09-29T18:23:57.002Z,97012.22
2022-09-29T18:26:23.472Z,97005.88
2022-09-29T18:28:51.414Z,97016.03
2022-09-29T18:31:31.319Z,97012.56
2022-09-29T18:33:57.811Z,97008.19
2022-09-29T18:36:24.446Z,97013.97
2022-09-29T18:38:50.885Z,97018.28
2022-09-29T18:41:24.918Z,97015.44
2022-09-29T18:43:54.131Z,97023.88
2022-09-29T18:46:23.636Z,97023.50
2022-09-29T18:48:50.207Z,97031.88
2022-09-29T18:51:21.280Z,97032.94
2022-09-29T18:53:48.496Z,97042.88
2022-09-29T18:56:18.814Z,97051.50
2022-09-29T18:58:45.374Z,97047.97
2022-09-29T19:01:15.032Z,97059.94
2022-09-29T19:03:43.065Z,97052.13
2022-09-29T19:06:13.723Z,97058.53
2022-09-29T19:08:42.663Z,97069.09
2022-09-29T19:11:16.741Z,97073.16
2022-09-29T19:13:43.555Z,97074.75
2022-09-29T19:16:10.100Z,97072.03
2022-09-29T19:18:36.629Z,97073.63
2022-09-29T19:21:09.453Z,97072.59
2022-09-29T19:23:37.482Z,97077.69
2022-09-29T19:26:12.688Z,97078.06
2022-09-29T19:28:40.430Z,97077.25
2022-09-29T19:31:10.137Z,97091.53
2022-09-29T19:33:37.362Z,97100.25
2022-09-29T19:36:07.615Z,97089.50
2022-09-29T19:38:35.469Z,97094.53
2022-09-29T19:41:02.207Z,97100.19
2022-09-29T19:43:28.743Z,97103.81
2022-09-29T19:45:55.222Z,97100.31
2022-09-29T19:48:23.251Z,97111.13
2022-09-29T19:51:16.343Z,97109.72
2022-09-29T19:53:45.876Z,97108.69
2022-09-29T19:56:16.622Z,97118.38
2022-09-29T19:58:43.177Z,97123.13
2022-09-29T20:01:11.452Z,97129.16
2022-09-29T20:03:37.816Z,97127.22
2022-09-29T20:06:06.501Z,97133.94
2022-09-29T20:08:33.729Z,97133.88
2022-09-29T20:11:11.066Z,97136.47
2022-09-29T20:13:37.938Z,97145.91
2022-09-29T20:16:05.888Z,97135.94
2022-09-29T20:18:36.519Z,97135.19
2022-09-29T20:21:10.810Z,97151.22
2022-09-29T20:23:40.372Z,97151.06
2022-09-29T20:26:08.916Z,97157.09
2022-09-29T20:28:36.747Z,97159.53
2022-09-29T20:31:05.177Z,97171.88
2022-09-29T20:33:33.273Z,97172.53
2022-09-29T20:36:03.757Z,97177.34
2022-09-29T20:38:36.444Z,97176.13
2022-09-29T20:41:03.739Z,97193.03
2022-09-29T20:43:30.279Z,97176.47
2022-09-29T20:45:59.549Z,97188.47
2022-09-29T20:48:26.454Z,97194.84
2022-09-29T20:50:53.029Z,97198.91
2022-09-29T20:53:19.648Z,97212.47
2022-09-29T20:55:46.378Z,97209.59
2022-09-29T20:58:13.927Z,97210.91
2022-09-29T21:00:40.590Z,97220.72
2022-09-29T21:03:07.382Z,97218.69
2022-09-29T21:05:33.907Z,97223.44
2022-09-29T21:08:00.570Z,97224.25
2022-09-29T21:10:27.798Z,97228.69
2022-09-29T21:12:54.317Z,97228.16
2022-09-29T21:15:20.801Z,97228.91
2022-09-29T21:17:47.355Z,97244.56
2022-09-29T21:20:13.896Z,97241.59
2022-09-29T21:22:40.427Z,97245.38
2022-09-29T21:25:07.172Z,97254.97
2022-09-29T21:27:35.959Z,97250.91
2022-09-29T21:30:05.486Z,97252.53
2022-09-29T21:32:32.117Z,97245.47
2022-09-29T21:34:58.711Z,97247.66
2022-09-29T21:37:25.228Z,97243.88
2022-09-29T21:39:51.977Z,97245.28
2022-09-29T21:42:18.554Z,97245.34
2022-09-29T21:44:45.524Z,97244.78
2022-09-29T21:47:12.949Z,97251.94
2022-09-29T21:49:39.506Z,97253.34
2022-09-29T21:52:06.128Z,97256.41
2022-09-29T21:54:34.478Z,97260.22
2022-09-29T21:57:00.913Z,97249.91
2022-09-29T21:59:27.463Z,97256.97
2022-09-29T22:01:54.131Z,97264.84
2022-09-29T22:04:21.052Z,97269.81
2022-09-29T22:06:47.966Z,97265.72
2022-09-29T22:09:17.972Z,97262.53
2022-09-29T22:11:45.225Z,97271.81
2022-09-29T22:14:13.101Z,97272.06
2022-09-29T22:16:40.057Z,97273.47
2022-09-29T22:19:23.674Z,97273.75
2022-09-29T22:21:51.880Z,97278.66
2022-09-29T22:24:18.390Z,97275.94
2022-09-29T22:26:45.078Z,97287.97
2022-09-29T22:29:11.730Z,97289.03
2022-09-29T22:31:40.107Z,97291.47
2022-09-29T22:34:06.964Z,97288.22
2022-09-29T22:36:34.791Z,97283.59
2022-09-29T22:39:02.919Z,97289.03
2022-09-29T22:41:29.514Z,97293.13
2022-09-29T22:43:58.339Z,97293.94
2022-09-29T22:46:26.807Z,97303.75
2022-09-29T22:48:53.398Z,97303.19
2022-09-29T22:51:22.785Z,97300.50
2022-09-29T22:53:49.542Z,97304.06
2022-09-29T22:56:19.323Z,97300.22
2022-09-29T22:58:46.002Z,97297.78
2022-09-29T23:01:15.300Z,97298.06
2022-09-29T23:03:43.570Z,97298.88
2022-09-29T23:06:10.297Z,97296.19
2022-09-29T23:08:37.076Z,97303.53
2022-09-29T23:11:06.459Z,97307.63
2022-09-29T23:13:34.593Z,97308.72
2022-09-29T23:16:04.551Z,97313.59
2022-09-29T23:18:32.990Z,97308.44
2022-09-29T23:21:01.101Z,97314.16
2022-09-29T23:23:27.843Z,97316.31
2022-09-29T23:25:54.589Z,97327.47
2022-09-29T23:28:21.631Z,97327.75
2022-09-29T23:30:48.172Z,97328.56
2022-09-29T23:33:14.822Z,97322.31
2022-09-29T23:35:41.462Z,97324.75
2022-09-29T23:38:28.049Z,97335.94
2022-09-29T23:40:54.836Z,97343.00
2022-09-29T23:43:21.578Z,97340.00
2022-09-29T23:45:48.265Z,97345.19
2022-09-29T23:48:15.017Z,97341.66
2022-09-29T23:50:45.264Z,97340.56
2022-09-29T23:53:12.849Z,97339.47
2022-09-29T23:55:39.824Z,97339.75
2022-09-29T23:58:06.374Z,97346.28
